CJL4 weather

La Loche Airport
La Loche, Saskatchewan, Canada

Public forecast

Using degrees Celsius for public forecast. Weather courtesy of forecast.io.

Closest aviation weather report (METAR) to La Loche Airport

Closest report is Buffalo Narrows Airport, 50.2 nm (93.0 km) SE. Retrieved 2020/05/27 15:32 UTC (0 seconds ago):

CYVT 271532Z AUTO 35012G20KT 9SM -RA SCT011 SCT033 OVC046 09/08 A2973 RMK SLP082

Closest aviation forecast (TAF) to La Loche Airport

Closest forecast is Buffalo Narrows Airport, 50.2 nm (93.0 km) SE. Retrieved 2020/05/27 14:39 UTC (39 minutes ago):

TAF CYVT 271338Z 2714/2802 32015G25KT P6SM -RA BKN025 OVC050 TEMPO 2714/2718 4SM -RA BR OVC020 FM271800 35012G22KT P6SM BKN030 OVC150 TEMPO 2718/2802 BKN020 OVC150 BECMG 2800/2802 36010KT RMK FCST BASED ON AUTO OBS NXT FCST BY 272100Z